sensor_id;sensor_type;location;lat;lon;timestamp;P1;durP1;ratioP1;P2;durP2;ratioP2
43337;SDS011;28933;52.492;13.434;2023-02-15T00:01:26;28.00;;;18.05;;
43337;SDS011;28933;52.492;13.434;2023-02-15T00:03:52;28.83;;;18.73;;
43337;SDS011;28933;52.492;13.434;2023-02-15T00:06:18;27.20;;;17.73;;
43337;SDS011;28933;52.492;13.434;2023-02-15T00:08:44;28.73;;;18.15;;
43337;SDS011;28933;52.492;13.434;2023-02-15T00:11:10;28.95;;;17.23;;
43337;SDS011;28933;52.492;13.434;2023-02-15T00:13:38;29.52;;;17.95;;
43337;SDS011;28933;52.492;13.434;2023-02-15T00:16:07;28.80;;;18.05;;
43337;SDS011;28933;52.492;13.434;2023-02-15T00:18:40;28.05;;;18.98;;
43337;SDS011;28933;52.492;13.434;2023-02-15T00:21:07;31.92;;;18.40;;
43337;SDS011;28933;52.492;13.434;2023-02-15T00:23:34;32.78;;;18.73;;
43337;SDS011;28933;52.492;13.434;2023-02-15T00:28:33;28.23;;;19.67;;
43337;SDS011;28933;52.492;13.434;2023-02-15T00:31:02;30.58;;;19.02;;
43337;SDS011;28933;52.492;13.434;2023-02-15T00:33:32;32.33;;;19.48;;
43337;SDS011;28933;52.492;13.434;2023-02-15T00:35:58;35.30;;;20.58;;
43337;SDS011;28933;52.492;13.434;2023-02-15T00:38:26;33.03;;;19.42;;
43337;SDS011;28933;52.492;13.434;2023-02-15T00:40:56;29.77;;;19.20;;
43337;SDS011;28933;52.492;13.434;2023-02-15T00:43:23;29.95;;;20.08;;
43337;SDS011;28933;52.492;13.434;2023-02-15T00:45:49;30.98;;;19.27;;
43337;SDS011;28933;52.492;13.434;2023-02-15T00:48:15;34.20;;;20.70;;
43337;SDS011;28933;52.492;13.434;2023-02-15T00:50:41;28.48;;;18.88;;
43337;SDS011;28933;52.492;13.434;2023-02-15T00:53:10;31.45;;;20.20;;
43337;SDS011;28933;52.492;13.434;2023-02-15T00:55:36;32.58;;;20.63;;
43337;SDS011;28933;52.492;13.434;2023-02-15T00:58:01;35.30;;;20.42;;
43337;SDS011;28933;52.492;13.434;2023-02-15T01:00:27;31.85;;;19.38;;
43337;SDS011;28933;52.492;13.434;2023-02-15T01:02:53;29.60;;;19.63;;
43337;SDS011;28933;52.492;13.434;2023-02-15T01:05:18;35.42;;;21.30;;
43337;SDS011;28933;52.492;13.434;2023-02-15T01:07:44;31.20;;;19.98;;
43337;SDS011;28933;52.492;13.434;2023-02-15T01:10:10;34.72;;;21.05;;
43337;SDS011;28933;52.492;13.434;2023-02-15T01:12:35;34.00;;;19.80;;
43337;SDS011;28933;52.492;13.434;2023-02-15T01:15:01;39.22;;;21.52;;
43337;SDS011;28933;52.492;13.434;2023-02-15T01:17:26;37.08;;;20.63;;
43337;SDS011;28933;52.492;13.434;2023-02-15T01:19:52;32.47;;;20.45;;
43337;SDS011;28933;52.492;13.434;2023-02-15T01:22:18;35.08;;;21.75;;
43337;SDS011;28933;52.492;13.434;2023-02-15T01:24:44;37.95;;;22.02;;
43337;SDS011;28933;52.492;13.434;2023-02-15T01:27:10;32.15;;;20.00;;
43337;SDS011;28933;52.492;13.434;2023-02-15T01:29:35;31.17;;;19.73;;
43337;SDS011;28933;52.492;13.434;2023-02-15T01:32:01;30.13;;;19.38;;
43337;SDS011;28933;52.492;13.434;2023-02-15T01:34:28;33.80;;;21.08;;
43337;SDS011;28933;52.492;13.434;2023-02-15T01:36:55;35.40;;;21.65;;
43337;SDS011;28933;52.492;13.434;2023-02-15T01:39:20;36.80;;;22.23;;
43337;SDS011;28933;52.492;13.434;2023-02-15T01:41:46;32.03;;;19.52;;
43337;SDS011;28933;52.492;13.434;2023-02-15T01:47:11;33.78;;;20.92;;
43337;SDS011;28933;52.492;13.434;2023-02-15T01:49:40;36.88;;;22.25;;
43337;SDS011;28933;52.492;13.434;2023-02-15T01:52:10;36.20;;;22.50;;
43337;SDS011;28933;52.492;13.434;2023-02-15T01:54:39;36.70;;;21.80;;
43337;SDS011;28933;52.492;13.434;2023-02-15T01:57:07;37.38;;;22.08;;
43337;SDS011;28933;52.492;13.434;2023-02-15T01:59:37;36.70;;;22.48;;
43337;SDS011;28933;52.492;13.434;2023-02-15T02:02:05;36.45;;;22.52;;
43337;SDS011;28933;52.492;13.434;2023-02-15T02:07:33;36.42;;;22.60;;
43337;SDS011;28933;52.492;13.434;2023-02-15T02:10:04;37.50;;;21.58;;
43337;SDS011;28933;52.492;13.434;2023-02-15T02:12:31;37.03;;;21.42;;
43337;SDS011;28933;52.492;13.434;2023-02-15T02:14:57;38.78;;;22.77;;
43337;SDS011;28933;52.492;13.434;2023-02-15T02:17:45;37.38;;;23.20;;
43337;SDS011;28933;52.492;13.434;2023-02-15T02:34:46;41.25;;;23.45;;
43337;SDS011;28933;52.492;13.434;2023-02-15T02:42:56;38.83;;;22.83;;
43337;SDS011;28933;52.492;13.434;2023-02-15T02:45:36;44.08;;;24.85;;
43337;SDS011;28933;52.492;13.434;2023-02-15T02:48:09;40.17;;;24.02;;
43337;SDS011;28933;52.492;13.434;2023-02-15T02:50:39;43.10;;;24.60;;
43337;SDS011;28933;52.492;13.434;2023-02-15T02:53:06;46.00;;;27.40;;
43337;SDS011;28933;52.492;13.434;2023-02-15T02:55:41;48.25;;;27.70;;
43337;SDS011;28933;52.492;13.434;2023-02-15T02:58:19;47.83;;;28.35;;
43337;SDS011;28933;52.492;13.434;2023-02-15T03:00:53;53.08;;;30.60;;
43337;SDS011;28933;52.492;13.434;2023-02-15T03:05:54;48.65;;;27.08;;
43337;SDS011;28933;52.492;13.434;2023-02-15T03:08:23;50.53;;;30.27;;
43337;SDS011;28933;52.492;13.434;2023-02-15T03:10:53;52.60;;;28.25;;
43337;SDS011;28933;52.492;13.434;2023-02-15T03:13:20;46.95;;;27.35;;
43337;SDS011;28933;52.492;13.434;2023-02-15T03:15:47;55.22;;;29.50;;
43337;SDS011;28933;52.492;13.434;2023-02-15T03:18:35;46.08;;;26.55;;
43337;SDS011;28933;52.492;13.434;2023-02-15T03:21:06;54.30;;;29.33;;
43337;SDS011;28933;52.492;13.434;2023-02-15T03:23:34;52.33;;;28.85;;
43337;SDS011;28933;52.492;13.434;2023-02-15T03:26:03;50.78;;;27.60;;
43337;SDS011;28933;52.492;13.434;2023-02-15T03:28:43;49.80;;;29.23;;
43337;SDS011;28933;52.492;13.434;2023-02-15T03:31:12;50.50;;;27.50;;
43337;SDS011;28933;52.492;13.434;2023-02-15T03:33:42;56.58;;;28.52;;
43337;SDS011;28933;52.492;13.434;2023-02-15T03:36:18;54.88;;;27.92;;
43337;SDS011;28933;52.492;13.434;2023-02-15T03:39:30;53.08;;;28.83;;
43337;SDS011;28933;52.492;13.434;2023-02-15T03:41:48;48.72;;;26.80;;
43337;SDS011;28933;52.492;13.434;2023-02-15T03:49:34;52.92;;;27.60;;
43337;SDS011;28933;52.492;13.434;2023-02-15T03:52:06;49.22;;;28.05;;
43337;SDS011;28933;52.492;13.434;2023-02-15T03:54:34;49.03;;;27.13;;
43337;SDS011;28933;52.492;13.434;2023-02-15T04:00:03;49.78;;;26.40;;
43337;SDS011;28933;52.492;13.434;2023-02-15T04:02:56;53.50;;;27.48;;
43337;SDS011;28933;52.492;13.434;2023-02-15T04:05:33;50.95;;;27.77;;
43337;SDS011;28933;52.492;13.434;2023-02-15T04:07:58;52.70;;;28.75;;
43337;SDS011;28933;52.492;13.434;2023-02-15T04:10:24;51.25;;;27.83;;
43337;SDS011;28933;52.492;13.434;2023-02-15T04:13:08;49.97;;;25.83;;
43337;SDS011;28933;52.492;13.434;2023-02-15T04:15:34;49.08;;;27.88;;
43337;SDS011;28933;52.492;13.434;2023-02-15T04:18:18;46.43;;;25.50;;
43337;SDS011;28933;52.492;13.434;2023-02-15T04:20:44;55.38;;;29.00;;
43337;SDS011;28933;52.492;13.434;2023-02-15T04:23:29;50.40;;;26.20;;
43337;SDS011;28933;52.492;13.434;2023-02-15T04:26:13;49.35;;;26.45;;
43337;SDS011;28933;52.492;13.434;2023-02-15T04:28:39;49.75;;;27.35;;
43337;SDS011;28933;52.492;13.434;2023-02-15T04:31:05;47.60;;;25.88;;
43337;SDS011;28933;52.492;13.434;2023-02-15T04:33:30;50.92;;;25.92;;
43337;SDS011;28933;52.492;13.434;2023-02-15T04:35:56;48.42;;;25.63;;
43337;SDS011;28933;52.492;13.434;2023-02-15T04:38:22;49.17;;;24.70;;
43337;SDS011;28933;52.492;13.434;2023-02-15T04:40:51;52.22;;;28.23;;
43337;SDS011;28933;52.492;13.434;2023-02-15T04:43:17;47.65;;;26.65;;
43337;SDS011;28933;52.492;13.434;2023-02-15T04:45:50;51.65;;;26.27;;
43337;SDS011;28933;52.492;13.434;2023-02-15T04:48:16;46.00;;;25.98;;
43337;SDS011;28933;52.492;13.434;2023-02-15T04:50:43;51.58;;;27.60;;
43337;SDS011;28933;52.492;13.434;2023-02-15T04:53:09;48.65;;;24.75;;
43337;SDS011;28933;52.492;13.434;2023-02-15T04:55:35;50.25;;;26.52;;
43337;SDS011;28933;52.492;13.434;2023-02-15T04:58:01;53.47;;;27.35;;
43337;SDS011;28933;52.492;13.434;2023-02-15T05:00:26;48.40;;;26.30;;
43337;SDS011;28933;52.492;13.434;2023-02-15T05:02:52;51.50;;;26.58;;
43337;SDS011;28933;52.492;13.434;2023-02-15T05:05:18;48.08;;;26.60;;
43337;SDS011;28933;52.492;13.434;2023-02-15T05:07:44;47.10;;;26.17;;
43337;SDS011;28933;52.492;13.434;2023-02-15T05:10:09;60.63;;;28.48;;
43337;SDS011;28933;52.492;13.434;2023-02-15T05:12:35;47.78;;;25.95;;
43337;SDS011;28933;52.492;13.434;2023-02-15T05:15:01;47.17;;;26.27;;
43337;SDS011;28933;52.492;13.434;2023-02-15T05:17:27;47.08;;;24.17;;
43337;SDS011;28933;52.492;13.434;2023-02-15T05:19:52;53.28;;;26.63;;
43337;SDS011;28933;52.492;13.434;2023-02-15T05:22:18;47.70;;;26.77;;
43337;SDS011;28933;52.492;13.434;2023-02-15T05:24:43;44.20;;;24.33;;
43337;SDS011;28933;52.492;13.434;2023-02-15T05:27:27;48.95;;;26.33;;
43337;SDS011;28933;52.492;13.434;2023-02-15T05:30:12;46.70;;;26.05;;
43337;SDS011;28933;52.492;13.434;2023-02-15T05:32:38;49.00;;;24.77;;
43337;SDS011;28933;52.492;13.434;2023-02-15T05:35:05;50.97;;;25.77;;
43337;SDS011;28933;52.492;13.434;2023-02-15T05:37:31;50.88;;;24.83;;
43337;SDS011;28933;52.492;13.434;2023-02-15T05:39:57;49.03;;;27.35;;
43337;SDS011;28933;52.492;13.434;2023-02-15T05:42:22;49.20;;;28.45;;
43337;SDS011;28933;52.492;13.434;2023-02-15T05:44:48;52.05;;;28.02;;
43337;SDS011;28933;52.492;13.434;2023-02-15T05:47:13;58.50;;;28.58;;
43337;SDS011;28933;52.492;13.434;2023-02-15T05:49:39;51.67;;;27.20;;
43337;SDS011;28933;52.492;13.434;2023-02-15T05:52:05;51.65;;;27.58;;
43337;SDS011;28933;52.492;13.434;2023-02-15T05:54:30;49.78;;;26.17;;
43337;SDS011;28933;52.492;13.434;2023-02-15T05:56:56;53.97;;;28.27;;
43337;SDS011;28933;52.492;13.434;2023-02-15T05:59:22;50.78;;;28.15;;
43337;SDS011;28933;52.492;13.434;2023-02-15T06:01:47;52.38;;;27.30;;
43337;SDS011;28933;52.492;13.434;2023-02-15T06:04:13;54.60;;;28.17;;
43337;SDS011;28933;52.492;13.434;2023-02-15T06:06:39;54.28;;;27.27;;
43337;SDS011;28933;52.492;13.434;2023-02-15T06:09:04;55.08;;;27.48;;
43337;SDS011;28933;52.492;13.434;2023-02-15T06:11:30;56.40;;;28.77;;
43337;SDS011;28933;52.492;13.434;2023-02-15T06:13:55;56.20;;;28.65;;
43337;SDS011;28933;52.492;13.434;2023-02-15T06:16:21;57.78;;;29.30;;
43337;SDS011;28933;52.492;13.434;2023-02-15T06:18:47;57.35;;;29.20;;
43337;SDS011;28933;52.492;13.434;2023-02-15T06:21:13;59.40;;;31.08;;
43337;SDS011;28933;52.492;13.434;2023-02-15T06:23:38;58.42;;;29.60;;
43337;SDS011;28933;52.492;13.434;2023-02-15T06:26:04;59.85;;;31.70;;
43337;SDS011;28933;52.492;13.434;2023-02-15T06:28:30;62.70;;;29.75;;
43337;SDS011;28933;52.492;13.434;2023-02-15T06:30:55;60.05;;;28.85;;
43337;SDS011;28933;52.492;13.434;2023-02-15T06:33:21;60.75;;;29.38;;
43337;SDS011;28933;52.492;13.434;2023-02-15T06:35:47;63.92;;;30.92;;
43337;SDS011;28933;52.492;13.434;2023-02-15T06:38:12;58.42;;;30.45;;
43337;SDS011;28933;52.492;13.434;2023-02-15T06:40:38;55.55;;;30.02;;
43337;SDS011;28933;52.492;13.434;2023-02-15T06:43:04;54.13;;;28.73;;
43337;SDS011;28933;52.492;13.434;2023-02-15T06:45:29;62.88;;;30.05;;
43337;SDS011;28933;52.492;13.434;2023-02-15T06:47:55;61.80;;;31.60;;
43337;SDS011;28933;52.492;13.434;2023-02-15T06:50:20;60.90;;;29.10;;
43337;SDS011;28933;52.492;13.434;2023-02-15T06:52:46;54.88;;;28.73;;
43337;SDS011;28933;52.492;13.434;2023-02-15T06:55:12;62.92;;;29.40;;
43337;SDS011;28933;52.492;13.434;2023-02-15T06:57:37;59.60;;;27.17;;
43337;SDS011;28933;52.492;13.434;2023-02-15T07:00:03;52.25;;;26.88;;
43337;SDS011;28933;52.492;13.434;2023-02-15T07:05:43;46.75;;;24.77;;
43337;SDS011;28933;52.492;13.434;2023-02-15T07:08:30;50.05;;;25.40;;
43337;SDS011;28933;52.492;13.434;2023-02-15T07:11:16;49.80;;;27.40;;
43337;SDS011;28933;52.492;13.434;2023-02-15T07:14:41;55.58;;;26.52;;
43337;SDS011;28933;52.492;13.434;2023-02-15T07:17:27;47.15;;;25.88;;
43337;SDS011;28933;52.492;13.434;2023-02-15T07:20:15;57.08;;;26.88;;
43337;SDS011;28933;52.492;13.434;2023-02-15T07:23:03;55.55;;;29.90;;
43337;SDS011;28933;52.492;13.434;2023-02-15T07:25:55;43.67;;;24.75;;
43337;SDS011;28933;52.492;13.434;2023-02-15T07:28:45;49.95;;;24.77;;
43337;SDS011;28933;52.492;13.434;2023-02-15T07:31:30;67.25;;;29.25;;
43337;SDS011;28933;52.492;13.434;2023-02-15T07:34:17;58.47;;;28.20;;
43337;SDS011;28933;52.492;13.434;2023-02-15T07:37:03;52.80;;;27.10;;
43337;SDS011;28933;52.492;13.434;2023-02-15T07:39:49;47.80;;;27.38;;
43337;SDS011;28933;52.492;13.434;2023-02-15T07:42:35;56.67;;;26.17;;
43337;SDS011;28933;52.492;13.434;2023-02-15T07:45:21;47.42;;;27.15;;
43337;SDS011;28933;52.492;13.434;2023-02-15T07:48:07;47.70;;;26.02;;
43337;SDS011;28933;52.492;13.434;2023-02-15T07:50:54;55.28;;;25.25;;
43337;SDS011;28933;52.492;13.434;2023-02-15T07:53:43;53.08;;;27.33;;
43337;SDS011;28933;52.492;13.434;2023-02-15T07:56:29;48.75;;;25.70;;
43337;SDS011;28933;52.492;13.434;2023-02-15T07:59:15;51.22;;;23.88;;
43337;SDS011;28933;52.492;13.434;2023-02-15T08:02:01;43.42;;;23.58;;
43337;SDS011;28933;52.492;13.434;2023-02-15T08:04:47;51.67;;;24.95;;
43337;SDS011;28933;52.492;13.434;2023-02-15T08:07:33;50.50;;;26.50;;
43337;SDS011;28933;52.492;13.434;2023-02-15T08:10:19;59.00;;;27.73;;
43337;SDS011;28933;52.492;13.434;2023-02-15T08:13:25;53.70;;;24.88;;
43337;SDS011;28933;52.492;13.434;2023-02-15T08:16:11;54.08;;;26.55;;
43337;SDS011;28933;52.492;13.434;2023-02-15T08:18:58;47.35;;;26.10;;
43337;SDS011;28933;52.492;13.434;2023-02-15T08:21:46;40.15;;;23.55;;
43337;SDS011;28933;52.492;13.434;2023-02-15T08:24:35;50.03;;;25.23;;
43337;SDS011;28933;52.492;13.434;2023-02-15T08:27:25;53.78;;;26.05;;
43337;SDS011;28933;52.492;13.434;2023-02-15T08:30:12;47.05;;;26.58;;
43337;SDS011;28933;52.492;13.434;2023-02-15T08:32:59;43.35;;;23.48;;
43337;SDS011;28933;52.492;13.434;2023-02-15T08:35:45;49.05;;;24.17;;
43337;SDS011;28933;52.492;13.434;2023-02-15T08:38:31;47.78;;;25.15;;
43337;SDS011;28933;52.492;13.434;2023-02-15T08:44:06;44.00;;;24.00;;
43337;SDS011;28933;52.492;13.434;2023-02-15T08:46:54;40.80;;;22.27;;
43337;SDS011;28933;52.492;13.434;2023-02-15T08:49:40;43.35;;;22.70;;
43337;SDS011;28933;52.492;13.434;2023-02-15T08:52:26;46.72;;;24.27;;
43337;SDS011;28933;52.492;13.434;2023-02-15T08:55:11;42.55;;;23.80;;
43337;SDS011;28933;52.492;13.434;2023-02-15T08:57:57;43.78;;;24.50;;
43337;SDS011;28933;52.492;13.434;2023-02-15T09:00:43;42.17;;;23.63;;
43337;SDS011;28933;52.492;13.434;2023-02-15T09:03:29;39.72;;;23.60;;
43337;SDS011;28933;52.492;13.434;2023-02-15T09:06:16;44.83;;;25.88;;
43337;SDS011;28933;52.492;13.434;2023-02-15T09:09:02;43.10;;;24.02;;
43337;SDS011;28933;52.492;13.434;2023-02-15T09:11:50;43.45;;;23.15;;
43337;SDS011;28933;52.492;13.434;2023-02-15T09:14:36;41.50;;;22.50;;
43337;SDS011;28933;52.492;13.434;2023-02-15T09:17:22;42.60;;;25.38;;
43337;SDS011;28933;52.492;13.434;2023-02-15T09:20:08;42.65;;;23.35;;
43337;SDS011;28933;52.492;13.434;2023-02-15T09:22:54;38.78;;;21.45;;
43337;SDS011;28933;52.492;13.434;2023-02-15T09:25:40;42.45;;;21.20;;
43337;SDS011;28933;52.492;13.434;2023-02-15T09:28:27;34.35;;;20.55;;
43337;SDS011;28933;52.492;13.434;2023-02-15T09:31:14;35.28;;;21.27;;
43337;SDS011;28933;52.492;13.434;2023-02-15T09:34:02;37.70;;;22.13;;
43337;SDS011;28933;52.492;13.434;2023-02-15T09:36:48;38.17;;;21.70;;
43337;SDS011;28933;52.492;13.434;2023-02-15T09:39:37;34.33;;;20.15;;
43337;SDS011;28933;52.492;13.434;2023-02-15T09:45:52;38.83;;;22.15;;
43337;SDS011;28933;52.492;13.434;2023-02-15T09:49:13;37.42;;;22.10;;
43337;SDS011;28933;52.492;13.434;2023-02-15T10:07:48;35.78;;;21.13;;
43337;SDS011;28933;52.492;13.434;2023-02-15T10:10:53;29.67;;;17.27;;
43337;SDS011;28933;52.492;13.434;2023-02-15T10:26:16;33.53;;;18.75;;
43337;SDS011;28933;52.492;13.434;2023-02-15T10:41:07;31.85;;;19.70;;
43337;SDS011;28933;52.492;13.434;2023-02-15T10:56:26;48.10;;;20.88;;
43337;SDS011;28933;52.492;13.434;2023-02-15T11:05:26;43.05;;;20.58;;
43337;SDS011;28933;52.492;13.434;2023-02-15T11:08:29;42.42;;;21.90;;
43337;SDS011;28933;52.492;13.434;2023-02-15T11:11:26;35.58;;;20.05;;
43337;SDS011;28933;52.492;13.434;2023-02-15T11:17:16;34.72;;;20.38;;
43337;SDS011;28933;52.492;13.434;2023-02-15T11:20:23;35.20;;;20.15;;
43337;SDS011;28933;52.492;13.434;2023-02-15T11:23:14;32.17;;;21.35;;
43337;SDS011;28933;52.492;13.434;2023-02-15T11:26:06;32.45;;;18.98;;
43337;SDS011;28933;52.492;13.434;2023-02-15T11:41:05;29.08;;;18.08;;
43337;SDS011;28933;52.492;13.434;2023-02-15T11:44:01;32.40;;;18.92;;
43337;SDS011;28933;52.492;13.434;2023-02-15T11:47:00;34.10;;;18.38;;
43337;SDS011;28933;52.492;13.434;2023-02-15T11:49:47;31.33;;;18.48;;
43337;SDS011;28933;52.492;13.434;2023-02-15T11:52:33;29.67;;;17.98;;
43337;SDS011;28933;52.492;13.434;2023-02-15T11:55:21;32.17;;;20.02;;
43337;SDS011;28933;52.492;13.434;2023-02-15T12:01:35;29.48;;;18.83;;
43337;SDS011;28933;52.492;13.434;2023-02-15T12:04:38;34.83;;;18.38;;
43337;SDS011;28933;52.492;13.434;2023-02-15T12:07:34;36.78;;;18.30;;
43337;SDS011;28933;52.492;13.434;2023-02-15T12:10:34;67.40;;;23.58;;
43337;SDS011;28933;52.492;13.434;2023-02-15T12:13:25;33.97;;;18.50;;
43337;SDS011;28933;52.492;13.434;2023-02-15T12:16:11;42.92;;;20.75;;
43337;SDS011;28933;52.492;13.434;2023-02-15T12:18:58;34.22;;;19.63;;
43337;SDS011;28933;52.492;13.434;2023-02-15T12:21:49;30.33;;;18.75;;
43337;SDS011;28933;52.492;13.434;2023-02-15T12:24:38;30.70;;;18.48;;
43337;SDS011;28933;52.492;13.434;2023-02-15T12:27:32;34.45;;;19.95;;
43337;SDS011;28933;52.492;13.434;2023-02-15T12:30:21;34.28;;;19.90;;
43337;SDS011;28933;52.492;13.434;2023-02-15T12:33:16;30.83;;;18.25;;
43337;SDS011;28933;52.492;13.434;2023-02-15T12:36:21;29.20;;;17.63;;
43337;SDS011;28933;52.492;13.434;2023-02-15T12:42:14;27.60;;;17.77;;
43337;SDS011;28933;52.492;13.434;2023-02-15T12:45:02;28.70;;;18.33;;
43337;SDS011;28933;52.492;13.434;2023-02-15T12:48:08;26.45;;;16.77;;
43337;SDS011;28933;52.492;13.434;2023-02-15T12:51:06;34.20;;;18.88;;
43337;SDS011;28933;52.492;13.434;2023-02-15T12:53:54;29.75;;;17.95;;
43337;SDS011;28933;52.492;13.434;2023-02-15T12:56:40;29.83;;;19.80;;
43337;SDS011;28933;52.492;13.434;2023-02-15T12:59:26;32.58;;;18.52;;
43337;SDS011;28933;52.492;13.434;2023-02-15T13:02:15;55.13;;;21.58;;
43337;SDS011;28933;52.492;13.434;2023-02-15T13:08:08;51.35;;;19.92;;
43337;SDS011;28933;52.492;13.434;2023-02-15T13:11:04;29.33;;;18.50;;
43337;SDS011;28933;52.492;13.434;2023-02-15T13:13:55;28.00;;;17.90;;
43337;SDS011;28933;52.492;13.434;2023-02-15T13:16:44;31.38;;;18.77;;
43337;SDS011;28933;52.492;13.434;2023-02-15T13:19:37;26.90;;;17.02;;
43337;SDS011;28933;52.492;13.434;2023-02-15T13:22:42;28.83;;;16.55;;
43337;SDS011;28933;52.492;13.434;2023-02-15T13:25:32;26.98;;;17.08;;
43337;SDS011;28933;52.492;13.434;2023-02-15T13:28:37;23.52;;;15.20;;
43337;SDS011;28933;52.492;13.434;2023-02-15T13:31:28;34.40;;;18.38;;
43337;SDS011;28933;52.492;13.434;2023-02-15T13:34:25;26.83;;;18.08;;
43337;SDS011;28933;52.492;13.434;2023-02-15T13:37:23;24.75;;;16.10;;
43337;SDS011;28933;52.492;13.434;2023-02-15T13:40:25;23.70;;;15.63;;
43337;SDS011;28933;52.492;13.434;2023-02-15T13:44:07;27.88;;;17.63;;
43337;SDS011;28933;52.492;13.434;2023-02-15T13:47:09;26.05;;;16.52;;
43337;SDS011;28933;52.492;13.434;2023-02-15T14:21:29;24.15;;;15.52;;
43337;SDS011;28933;52.492;13.434;2023-02-15T14:33:07;26.52;;;18.38;;
43337;SDS011;28933;52.492;13.434;2023-02-15T14:35:54;28.75;;;17.17;;
43337;SDS011;28933;52.492;13.434;2023-02-15T14:41:48;27.55;;;17.65;;
43337;SDS011;28933;52.492;13.434;2023-02-15T14:44:39;26.50;;;16.90;;
43337;SDS011;28933;52.492;13.434;2023-02-15T14:47:35;35.42;;;17.20;;
43337;SDS011;28933;52.492;13.434;2023-02-15T14:56:21;24.27;;;16.67;;
43337;SDS011;28933;52.492;13.434;2023-02-15T14:59:13;25.05;;;16.58;;
43337;SDS011;28933;52.492;13.434;2023-02-15T15:07:51;24.20;;;16.67;;
43337;SDS011;28933;52.492;13.434;2023-02-15T15:10:41;26.40;;;15.95;;
43337;SDS011;28933;52.492;13.434;2023-02-15T15:19:12;28.23;;;16.48;;
43337;SDS011;28933;52.492;13.434;2023-02-15T15:22:31;23.20;;;14.07;;
43337;SDS011;28933;52.492;13.434;2023-02-15T15:40:34;22.30;;;14.63;;
43337;SDS011;28933;52.492;13.434;2023-02-15T15:49:20;23.13;;;14.85;;
43337;SDS011;28933;52.492;13.434;2023-02-15T15:52:13;22.95;;;14.07;;
43337;SDS011;28933;52.492;13.434;2023-02-15T15:55:05;23.05;;;14.18;;
43337;SDS011;28933;52.492;13.434;2023-02-15T15:58:03;25.30;;;15.65;;
43337;SDS011;28933;52.492;13.434;2023-02-15T16:00:56;19.35;;;14.40;;
43337;SDS011;28933;52.492;13.434;2023-02-15T16:03:51;21.85;;;13.88;;
43337;SDS011;28933;52.492;13.434;2023-02-15T16:06:39;21.15;;;14.75;;
43337;SDS011;28933;52.492;13.434;2023-02-15T16:09:26;22.65;;;14.80;;
43337;SDS011;28933;52.492;13.434;2023-02-15T16:12:13;22.42;;;14.15;;
43337;SDS011;28933;52.492;13.434;2023-02-15T16:15:04;21.92;;;15.63;;
43337;SDS011;28933;52.492;13.434;2023-02-15T16:18:00;25.08;;;14.52;;
43337;SDS011;28933;52.492;13.434;2023-02-15T16:20:51;22.98;;;14.52;;
43337;SDS011;28933;52.492;13.434;2023-02-15T16:29:51;21.13;;;13.60;;
43337;SDS011;28933;52.492;13.434;2023-02-15T16:32:37;23.25;;;15.63;;
43337;SDS011;28933;52.492;13.434;2023-02-15T16:35:23;24.65;;;15.30;;
43337;SDS011;28933;52.492;13.434;2023-02-15T16:38:09;23.63;;;15.38;;
43337;SDS011;28933;52.492;13.434;2023-02-15T16:40:58;22.08;;;14.18;;
43337;SDS011;28933;52.492;13.434;2023-02-15T16:43:47;23.48;;;14.82;;
43337;SDS011;28933;52.492;13.434;2023-02-15T16:46:41;21.35;;;14.48;;
43337;SDS011;28933;52.492;13.434;2023-02-15T16:49:29;28.02;;;15.52;;
43337;SDS011;28933;52.492;13.434;2023-02-15T16:52:19;25.17;;;15.40;;
43337;SDS011;28933;52.492;13.434;2023-02-15T16:55:18;24.33;;;15.30;;
43337;SDS011;28933;52.492;13.434;2023-02-15T16:58:13;25.90;;;15.57;;
43337;SDS011;28933;52.492;13.434;2023-02-15T17:01:02;24.25;;;14.27;;
43337;SDS011;28933;52.492;13.434;2023-02-15T17:03:51;22.83;;;14.98;;
43337;SDS011;28933;52.492;13.434;2023-02-15T17:10:16;23.30;;;15.00;;
43337;SDS011;28933;52.492;13.434;2023-02-15T17:13:18;25.17;;;14.45;;
43337;SDS011;28933;52.492;13.434;2023-02-15T17:18:50;25.83;;;16.02;;
43337;SDS011;28933;52.492;13.434;2023-02-15T17:21:40;23.35;;;16.08;;
43337;SDS011;28933;52.492;13.434;2023-02-15T17:27:26;26.70;;;16.67;;
43337;SDS011;28933;52.492;13.434;2023-02-15T17:30:15;23.13;;;15.23;;
43337;SDS011;28933;52.492;13.434;2023-02-15T17:33:18;24.05;;;16.55;;
43337;SDS011;28933;52.492;13.434;2023-02-15T17:36:06;26.25;;;17.17;;
43337;SDS011;28933;52.492;13.434;2023-02-15T17:39:18;24.25;;;16.30;;
43337;SDS011;28933;52.492;13.434;2023-02-15T17:42:07;30.63;;;17.55;;
43337;SDS011;28933;52.492;13.434;2023-02-15T17:44:53;28.13;;;16.67;;
43337;SDS011;28933;52.492;13.434;2023-02-15T17:47:39;28.00;;;17.80;;
43337;SDS011;28933;52.492;13.434;2023-02-15T17:50:26;28.35;;;16.83;;
43337;SDS011;28933;52.492;13.434;2023-02-15T17:53:13;30.35;;;19.67;;
43337;SDS011;28933;52.492;13.434;2023-02-15T17:56:02;30.67;;;20.67;;
43337;SDS011;28933;52.492;13.434;2023-02-15T17:59:06;32.63;;;21.13;;
43337;SDS011;28933;52.492;13.434;2023-02-15T18:01:52;32.67;;;20.90;;
43337;SDS011;28933;52.492;13.434;2023-02-15T18:04:57;29.55;;;20.02;;
43337;SDS011;28933;52.492;13.434;2023-02-15T18:08:02;34.30;;;20.02;;
43337;SDS011;28933;52.492;13.434;2023-02-15T18:11:08;29.70;;;20.27;;
43337;SDS011;28933;52.492;13.434;2023-02-15T18:14:13;30.70;;;20.65;;
43337;SDS011;28933;52.492;13.434;2023-02-15T18:16:59;28.80;;;20.48;;
43337;SDS011;28933;52.492;13.434;2023-02-15T18:19:45;36.63;;;22.02;;
43337;SDS011;28933;52.492;13.434;2023-02-15T18:22:32;36.78;;;23.83;;
43337;SDS011;28933;52.492;13.434;2023-02-15T18:25:19;43.95;;;23.63;;
43337;SDS011;28933;52.492;13.434;2023-02-15T18:28:06;31.80;;;22.45;;
43337;SDS011;28933;52.492;13.434;2023-02-15T18:30:52;38.25;;;21.85;;
43337;SDS011;28933;52.492;13.434;2023-02-15T18:33:38;33.85;;;21.83;;
43337;SDS011;28933;52.492;13.434;2023-02-15T18:36:39;32.58;;;22.83;;
43337;SDS011;28933;52.492;13.434;2023-02-15T18:39:39;34.30;;;21.92;;
43337;SDS011;28933;52.492;13.434;2023-02-15T18:42:30;35.05;;;23.80;;
43337;SDS011;28933;52.492;13.434;2023-02-15T18:45:22;38.42;;;23.70;;
43337;SDS011;28933;52.492;13.434;2023-02-15T18:48:17;31.45;;;21.08;;
43337;SDS011;28933;52.492;13.434;2023-02-15T18:51:03;33.92;;;21.88;;
43337;SDS011;28933;52.492;13.434;2023-02-15T18:53:51;34.55;;;21.77;;
43337;SDS011;28933;52.492;13.434;2023-02-15T18:56:37;36.28;;;21.83;;
43337;SDS011;28933;52.492;13.434;2023-02-15T18:59:24;34.83;;;21.58;;
43337;SDS011;28933;52.492;13.434;2023-02-15T19:02:12;32.85;;;21.77;;
43337;SDS011;28933;52.492;13.434;2023-02-15T19:04:59;35.80;;;22.38;;
43337;SDS011;28933;52.492;13.434;2023-02-15T19:07:45;36.88;;;23.30;;
43337;SDS011;28933;52.492;13.434;2023-02-15T19:10:32;29.65;;;20.83;;
43337;SDS011;28933;52.492;13.434;2023-02-15T19:13:20;31.77;;;20.05;;
43337;SDS011;28933;52.492;13.434;2023-02-15T19:16:05;28.40;;;17.95;;
43337;SDS011;28933;52.492;13.434;2023-02-15T19:18:53;30.08;;;20.48;;